sensor_id;sensor_type;location;lat;lon;timestamp;P1;P2;P0
83597;PMS5003;73565;45.774;15.892;2024-03-29T00:03:10;2;2;2
83597;PMS5003;73565;45.774;15.892;2024-03-29T00:05:10;1;1;1
83597;PMS5003;73565;45.774;15.892;2024-03-29T00:07:10;3;3;3
83597;PMS5003;73565;45.774;15.892;2024-03-29T00:09:10;3;3;1
83597;PMS5003;73565;45.774;15.892;2024-03-29T00:11:10;4;3;3
83597;PMS5003;73565;45.774;15.892;2024-03-29T00:13:10;3;3;3
83597;PMS5003;73565;45.774;15.892;2024-03-29T00:15:10;3;3;2
83597;PMS5003;73565;45.774;15.892;2024-03-29T00:17:10;3;3;3
83597;PMS5003;73565;45.774;15.892;2024-03-29T00:19:10;2;2;2
83597;PMS5003;73565;45.774;15.892;2024-03-29T00:21:10;3;3;3
83597;PMS5003;73565;45.774;15.892;2024-03-29T00:23:10;1;1;1
83597;PMS5003;73565;45.774;15.892;2024-03-29T00:25:10;4;4;3
83597;PMS5003;73565;45.774;15.892;2024-03-29T00:27:10;2;2;1
83597;PMS5003;73565;45.774;15.892;2024-03-29T00:29:10;5;4;4
83597;PMS5003;73565;45.774;15.892;2024-03-29T00:32:07;5;5;4
83597;PMS5003;73565;45.774;15.892;2024-03-29T00:34:05;5;5;3
83597;PMS5003;73565;45.774;15.892;2024-03-29T00:36:06;6;5;4
83597;PMS5003;73565;45.774;15.892;2024-03-29T00:38:05;7;7;6
83597;PMS5003;73565;45.774;15.892;2024-03-29T00:40:06;7;7;6
83597;PMS5003;73565;45.774;15.892;2024-03-29T00:42:06;7;7;4
83597;PMS5003;73565;45.774;15.892;2024-03-29T00:46:37;6;6;5
83597;PMS5003;73565;45.774;15.892;2024-03-29T00:48:37;8;8;7
83597;PMS5003;73565;45.774;15.892;2024-03-29T00:50:37;7;7;5
83597;PMS5003;73565;45.774;15.892;2024-03-29T00:52:37;7;7;5
83597;PMS5003;73565;45.774;15.892;2024-03-29T00:54:37;7;7;6
83597;PMS5003;73565;45.774;15.892;2024-03-29T00:56:37;8;7;5
83597;PMS5003;73565;45.774;15.892;2024-03-29T00:58:37;8;8;7
83597;PMS5003;73565;45.774;15.892;2024-03-29T01:00:37;6;5;5
83597;PMS5003;73565;45.774;15.892;2024-03-29T01:02:37;7;7;6
83597;PMS5003;73565;45.774;15.892;2024-03-29T01:04:37;6;6;5
83597;PMS5003;73565;45.774;15.892;2024-03-29T01:09:27;6;6;5
83597;PMS5003;73565;45.774;15.892;2024-03-29T01:11:27;8;7;6
83597;PMS5003;73565;45.774;15.892;2024-03-29T01:13:27;6;6;4
83597;PMS5003;73565;45.774;15.892;2024-03-29T01:15:27;6;5;5
83597;PMS5003;73565;45.774;15.892;2024-03-29T01:17:27;3;3;3
83597;PMS5003;73565;45.774;15.892;2024-03-29T01:19:27;8;8;6
83597;PMS5003;73565;45.774;15.892;2024-03-29T01:21:27;4;4;4
83597;PMS5003;73565;45.774;15.892;2024-03-29T01:23:27;5;5;4
83597;PMS5003;73565;45.774;15.892;2024-03-29T01:25:27;4;4;4
83597;PMS5003;73565;45.774;15.892;2024-03-29T01:27:27;5;5;4
83597;PMS5003;73565;45.774;15.892;2024-03-29T01:29:27;6;6;5
83597;PMS5003;73565;45.774;15.892;2024-03-29T01:31:27;6;6;5
83597;PMS5003;73565;45.774;15.892;2024-03-29T01:33:27;4;4;4
83597;PMS5003;73565;45.774;15.892;2024-03-29T01:35:27;5;5;4
83597;PMS5003;73565;45.774;15.892;2024-03-29T01:37:27;5;4;4
83597;PMS5003;73565;45.774;15.892;2024-03-29T01:39:27;6;6;5
83597;PMS5003;73565;45.774;15.892;2024-03-29T01:41:27;7;7;6
83597;PMS5003;73565;45.774;15.892;2024-03-29T01:43:27;6;6;5
83597;PMS5003;73565;45.774;15.892;2024-03-29T01:45:27;4;4;3
83597;PMS5003;73565;45.774;15.892;2024-03-29T01:47:27;1;1;0
83597;PMS5003;73565;45.774;15.892;2024-03-29T01:49:27;4;4;4
83597;PMS5003;73565;45.774;15.892;2024-03-29T01:51:27;6;6;5
83597;PMS5003;73565;45.774;15.892;2024-03-29T01:53:27;5;5;3
83597;PMS5003;73565;45.774;15.892;2024-03-29T01:55:27;5;5;3
83597;PMS5003;73565;45.774;15.892;2024-03-29T01:57:27;8;7;6
83597;PMS5003;73565;45.774;15.892;2024-03-29T01:59:27;6;5;4
83597;PMS5003;73565;45.774;15.892;2024-03-29T02:01:27;6;6;5
83597;PMS5003;73565;45.774;15.892;2024-03-29T02:03:27;5;5;5
83597;PMS5003;73565;45.774;15.892;2024-03-29T02:07:45;6;6;5
83597;PMS5003;73565;45.774;15.892;2024-03-29T02:09:45;4;3;2
83597;PMS5003;73565;45.774;15.892;2024-03-29T02:11:45;5;4;3
83597;PMS5003;73565;45.774;15.892;2024-03-29T02:13:45;8;8;6
83597;PMS5003;73565;45.774;15.892;2024-03-29T02:15:45;5;5;5
83597;PMS5003;73565;45.774;15.892;2024-03-29T02:17:45;8;7;5
83597;PMS5003;73565;45.774;15.892;2024-03-29T02:19:45;5;5;5
83597;PMS5003;73565;45.774;15.892;2024-03-29T02:22:39;7;7;5
83597;PMS5003;73565;45.774;15.892;2024-03-29T02:25:49;5;5;4
83597;PMS5003;73565;45.774;15.892;2024-03-29T02:30:17;3;3;3
83597;PMS5003;73565;45.774;15.892;2024-03-29T02:32:17;4;4;3
83597;PMS5003;73565;45.774;15.892;2024-03-29T02:34:17;2;1;1
83597;PMS5003;73565;45.774;15.892;2024-03-29T02:36:17;1;1;1
83597;PMS5003;73565;45.774;15.892;2024-03-29T02:38:17;1;1;1
83597;PMS5003;73565;45.774;15.892;2024-03-29T02:40:17;2;2;2
83597;PMS5003;73565;45.774;15.892;2024-03-29T02:42:17;1;1;1
83597;PMS5003;73565;45.774;15.892;2024-03-29T02:44:17;1;1;1
83597;PMS5003;73565;45.774;15.892;2024-03-29T02:46:17;0;0;0
83597;PMS5003;73565;45.774;15.892;2024-03-29T02:48:17;0;0;0
83597;PMS5003;73565;45.774;15.892;2024-03-29T02:50:17;1;1;0
83597;PMS5003;73565;45.774;15.892;2024-03-29T02:52:17;0;0;0
83597;PMS5003;73565;45.774;15.892;2024-03-29T02:54:17;0;0;0
83597;PMS5003;73565;45.774;15.892;2024-03-29T02:56:17;0;0;0
83597;PMS5003;73565;45.774;15.892;2024-03-29T02:58:17;0;0;0
83597;PMS5003;73565;45.774;15.892;2024-03-29T03:00:17;0;0;0
83597;PMS5003;73565;45.774;15.892;2024-03-29T03:02:17;0;0;0
83597;PMS5003;73565;45.774;15.892;2024-03-29T03:04:17;0;0;0
83597;PMS5003;73565;45.774;15.892;2024-03-29T03:06:17;0;0;0
83597;PMS5003;73565;45.774;15.892;2024-03-29T03:08:17;0;0;0
83597;PMS5003;73565;45.774;15.892;2024-03-29T03:10:17;0;0;0
83597;PMS5003;73565;45.774;15.892;2024-03-29T03:12:17;0;0;0
83597;PMS5003;73565;45.774;15.892;2024-03-29T03:14:17;0;0;0
83597;PMS5003;73565;45.774;15.892;2024-03-29T03:16:17;0;0;0
83597;PMS5003;73565;45.774;15.892;2024-03-29T03:18:49;0;0;0
83597;PMS5003;73565;45.774;15.892;2024-03-29T03:19:56;0;0;0
83597;PMS5003;73565;45.774;15.892;2024-03-29T03:21:56;0;0;0
83597;PMS5003;73565;45.774;15.892;2024-03-29T03:23:56;0;0;0
83597;PMS5003;73565;45.774;15.892;2024-03-29T03:25:59;0;0;0
83597;PMS5003;73565;45.774;15.892;2024-03-29T03:27:56;0;0;0
83597;PMS5003;73565;45.774;15.892;2024-03-29T03:29:56;0;0;0
83597;PMS5003;73565;45.774;15.892;2024-03-29T03:31:56;0;0;0
83597;PMS5003;73565;45.774;15.892;2024-03-29T03:33:56;0;0;0
83597;PMS5003;73565;45.774;15.892;2024-03-29T03:35:56;0;0;0
83597;PMS5003;73565;45.774;15.892;2024-03-29T03:37:56;0;0;0
83597;PMS5003;73565;45.774;15.892;2024-03-29T03:39:56;0;0;0
83597;PMS5003;73565;45.774;15.892;2024-03-29T03:41:56;0;0;0
83597;PMS5003;73565;45.774;15.892;2024-03-29T03:43:56;0;0;0
83597;PMS5003;73565;45.774;15.892;2024-03-29T03:45:59;0;0;0
83597;PMS5003;73565;45.774;15.892;2024-03-29T03:47:56;0;0;0
83597;PMS5003;73565;45.774;15.892;2024-03-29T03:49:56;0;0;0
83597;PMS5003;73565;45.774;15.892;2024-03-29T03:51:56;0;0;0
83597;PMS5003;73565;45.774;15.892;2024-03-29T03:53:56;0;0;0
83597;PMS5003;73565;45.774;15.892;2024-03-29T03:55:56;0;0;0
83597;PMS5003;73565;45.774;15.892;2024-03-29T03:57:56;0;0;0
83597;PMS5003;73565;45.774;15.892;2024-03-29T03:59:56;0;0;0
83597;PMS5003;73565;45.774;15.892;2024-03-29T04:01:56;0;0;0
83597;PMS5003;73565;45.774;15.892;2024-03-29T04:03:56;0;0;0
83597;PMS5003;73565;45.774;15.892;2024-03-29T04:05:56;0;0;0
83597;PMS5003;73565;45.774;15.892;2024-03-29T04:10:30;0;0;0
83597;PMS5003;73565;45.774;15.892;2024-03-29T04:12:30;0;0;0
83597;PMS5003;73565;45.774;15.892;2024-03-29T04:14:30;0;0;0
83597;PMS5003;73565;45.774;15.892;2024-03-29T04:16:56;0;0;0
83597;PMS5003;73565;45.774;15.892;2024-03-29T04:18:56;0;0;0
83597;PMS5003;73565;45.774;15.892;2024-03-29T04:20:59;3;2;1
83597;PMS5003;73565;45.774;15.892;2024-03-29T04:22:56;1;1;1
83597;PMS5003;73565;45.774;15.892;2024-03-29T04:24:56;1;1;1
83597;PMS5003;73565;45.774;15.892;2024-03-29T04:26:56;1;1;1
83597;PMS5003;73565;45.774;15.892;2024-03-29T04:28:56;1;1;1
83597;PMS5003;73565;45.774;15.892;2024-03-29T04:30:57;0;0;0
83597;PMS5003;73565;45.774;15.892;2024-03-29T04:32:56;0;0;0
83597;PMS5003;73565;45.774;15.892;2024-03-29T04:34:56;0;0;0
83597;PMS5003;73565;45.774;15.892;2024-03-29T04:36:56;0;0;0
83597;PMS5003;73565;45.774;15.892;2024-03-29T04:38:56;0;0;0
83597;PMS5003;73565;45.774;15.892;2024-03-29T04:40:56;0;0;0
83597;PMS5003;73565;45.774;15.892;2024-03-29T04:42:56;0;0;0
83597;PMS5003;73565;45.774;15.892;2024-03-29T04:44:56;0;0;0
83597;PMS5003;73565;45.774;15.892;2024-03-29T04:46:56;0;0;0
83597;PMS5003;73565;45.774;15.892;2024-03-29T04:48:56;1;1;1
83597;PMS5003;73565;45.774;15.892;2024-03-29T04:50:56;1;1;1
83597;PMS5003;73565;45.774;15.892;2024-03-29T04:52:56;0;0;0
83597;PMS5003;73565;45.774;15.892;2024-03-29T04:54:56;1;1;1
83597;PMS5003;73565;45.774;15.892;2024-03-29T04:56:56;1;1;1
83597;PMS5003;73565;45.774;15.892;2024-03-29T04:58:56;1;1;1
83597;PMS5003;73565;45.774;15.892;2024-03-29T05:00:56;2;1;1
83597;PMS5003;73565;45.774;15.892;2024-03-29T05:02:56;1;1;1
83597;PMS5003;73565;45.774;15.892;2024-03-29T05:04:56;2;1;1
83597;PMS5003;73565;45.774;15.892;2024-03-29T05:06:56;1;1;1
83597;PMS5003;73565;45.774;15.892;2024-03-29T05:08:56;1;1;1
83597;PMS5003;73565;45.774;15.892;2024-03-29T05:10:56;1;1;1
83597;PMS5003;73565;45.774;15.892;2024-03-29T05:12:56;0;0;0
83597;PMS5003;73565;45.774;15.892;2024-03-29T05:13:53;1;1;1
83597;PMS5003;73565;45.774;15.892;2024-03-29T05:15:33;1;1;1
83597;PMS5003;73565;45.774;15.892;2024-03-29T05:17:33;2;1;1
83597;PMS5003;73565;45.774;15.892;2024-03-29T05:19:33;1;1;1
83597;PMS5003;73565;45.774;15.892;2024-03-29T05:21:33;2;2;2
83597;PMS5003;73565;45.774;15.892;2024-03-29T05:23:33;2;2;1
83597;PMS5003;73565;45.774;15.892;2024-03-29T05:25:33;2;2;2
83597;PMS5003;73565;45.774;15.892;2024-03-29T05:27:33;2;2;2
83597;PMS5003;73565;45.774;15.892;2024-03-29T05:29:33;1;1;1
83597;PMS5003;73565;45.774;15.892;2024-03-29T05:31:33;1;1;1
83597;PMS5003;73565;45.774;15.892;2024-03-29T05:33:33;1;1;1
83597;PMS5003;73565;45.774;15.892;2024-03-29T05:35:33;2;2;2
83597;PMS5003;73565;45.774;15.892;2024-03-29T05:37:33;2;2;2
83597;PMS5003;73565;45.774;15.892;2024-03-29T05:39:33;2;2;2
83597;PMS5003;73565;45.774;15.892;2024-03-29T05:41:33;3;3;2
83597;PMS5003;73565;45.774;15.892;2024-03-29T05:43:33;1;1;1
83597;PMS5003;73565;45.774;15.892;2024-03-29T05:45:33;2;2;2
83597;PMS5003;73565;45.774;15.892;2024-03-29T05:47:33;2;2;2
83597;PMS5003;73565;45.774;15.892;2024-03-29T05:49:33;3;2;2
83597;PMS5003;73565;45.774;15.892;2024-03-29T05:51:33;4;4;3
83597;PMS5003;73565;45.774;15.892;2024-03-29T05:53:33;3;2;2
83597;PMS5003;73565;45.774;15.892;2024-03-29T05:55:33;2;2;2
83597;PMS5003;73565;45.774;15.892;2024-03-29T05:57:33;4;1;0
83597;PMS5003;73565;45.774;15.892;2024-03-29T05:59:33;2;2;2
83597;PMS5003;73565;45.774;15.892;2024-03-29T06:01:33;2;2;1
83597;PMS5003;73565;45.774;15.892;2024-03-29T06:03:33;2;2;2
83597;PMS5003;73565;45.774;15.892;2024-03-29T06:05:33;2;2;2
83597;PMS5003;73565;45.774;15.892;2024-03-29T06:07:33;4;4;2
83597;PMS5003;73565;45.774;15.892;2024-03-29T06:09:33;4;4;3
83597;PMS5003;73565;45.774;15.892;2024-03-29T06:11:33;4;4;3
83597;PMS5003;73565;45.774;15.892;2024-03-29T06:13:33;2;2;1
83597;PMS5003;73565;45.774;15.892;2024-03-29T06:15:33;3;3;2
83597;PMS5003;73565;45.774;15.892;2024-03-29T06:17:33;2;2;2
83597;PMS5003;73565;45.774;15.892;2024-03-29T06:19:33;2;2;2
83597;PMS5003;73565;45.774;15.892;2024-03-29T06:21:33;2;2;2
83597;PMS5003;73565;45.774;15.892;2024-03-29T06:23:33;3;3;3
83597;PMS5003;73565;45.774;15.892;2024-03-29T06:26:01;5;5;4
83597;PMS5003;73565;45.774;15.892;2024-03-29T06:27:36;4;4;4
83597;PMS5003;73565;45.774;15.892;2024-03-29T06:29:36;4;4;2
83597;PMS5003;73565;45.774;15.892;2024-03-29T06:31:36;4;3;3
83597;PMS5003;73565;45.774;15.892;2024-03-29T06:33:36;3;3;3
83597;PMS5003;73565;45.774;15.892;2024-03-29T06:35:36;1;1;1
83597;PMS5003;73565;45.774;15.892;2024-03-29T06:37:36;2;2;2
83597;PMS5003;73565;45.774;15.892;2024-03-29T06:39:36;1;1;1
83597;PMS5003;73565;45.774;15.892;2024-03-29T06:41:36;2;2;2
83597;PMS5003;73565;45.774;15.892;2024-03-29T06:43:36;2;1;1
83597;PMS5003;73565;45.774;15.892;2024-03-29T06:45:39;3;3;2
83597;PMS5003;73565;45.774;15.892;2024-03-29T06:47:36;1;0;0
83597;PMS5003;73565;45.774;15.892;2024-03-29T06:49:36;1;1;1
83597;PMS5003;73565;45.774;15.892;2024-03-29T06:51:36;1;1;1
83597;PMS5003;73565;45.774;15.892;2024-03-29T06:53:36;2;2;2
83597;PMS5003;73565;45.774;15.892;2024-03-29T06:55:36;2;2;2
83597;PMS5003;73565;45.774;15.892;2024-03-29T06:57:36;0;0;0
83597;PMS5003;73565;45.774;15.892;2024-03-29T06:59:36;1;1;1
83597;PMS5003;73565;45.774;15.892;2024-03-29T07:01:36;3;3;2
83597;PMS5003;73565;45.774;15.892;2024-03-29T07:03:36;2;2;1
83597;PMS5003;73565;45.774;15.892;2024-03-29T07:05:36;2;2;2
83597;PMS5003;73565;45.774;15.892;2024-03-29T07:07:36;2;1;1
83597;PMS5003;73565;45.774;15.892;2024-03-29T07:09:36;2;2;2
83597;PMS5003;73565;45.774;15.892;2024-03-29T07:11:36;2;2;2
83597;PMS5003;73565;45.774;15.892;2024-03-29T07:13:36;2;2;1
83597;PMS5003;73565;45.774;15.892;2024-03-29T07:17:16;2;2;1
83597;PMS5003;73565;45.774;15.892;2024-03-29T07:19:14;2;2;1
83597;PMS5003;73565;45.774;15.892;2024-03-29T07:21:14;1;1;1
83597;PMS5003;73565;45.774;15.892;2024-03-29T07:21:44;2;2;2
83597;PMS5003;73565;45.774;15.892;2024-03-29T07:23:00;2;2;2
83597;PMS5003;73565;45.774;15.892;2024-03-29T07:25:00;1;1;1
83597;PMS5003;73565;45.774;15.892;2024-03-29T07:27:00;2;2;2
83597;PMS5003;73565;45.774;15.892;2024-03-29T07:29:00;2;2;2
83597;PMS5003;73565;45.774;15.892;2024-03-29T07:31:04;1;1;1
83597;PMS5003;73565;45.774;15.892;2024-03-29T07:33:00;2;1;1
83597;PMS5003;73565;45.774;15.892;2024-03-29T07:35:00;1;1;0
83597;PMS5003;73565;45.774;15.892;2024-03-29T07:37:00;2;2;2
83597;PMS5003;73565;45.774;15.892;2024-03-29T07:39:01;4;4;3
83597;PMS5003;73565;45.774;15.892;2024-03-29T07:41:00;3;3;2
83597;PMS5003;73565;45.774;15.892;2024-03-29T07:43:00;1;1;1
83597;PMS5003;73565;45.774;15.892;2024-03-29T07:45:00;3;3;2
83597;PMS5003;73565;45.774;15.892;2024-03-29T07:47:00;4;4;3
83597;PMS5003;73565;45.774;15.892;2024-03-29T07:49:00;4;3;2
83597;PMS5003;73565;45.774;15.892;2024-03-29T07:51:00;4;4;3
83597;PMS5003;73565;45.774;15.892;2024-03-29T07:53:00;3;3;3
83597;PMS5003;73565;45.774;15.892;2024-03-29T07:55:00;3;3;3
83597;PMS5003;73565;45.774;15.892;2024-03-29T07:57:00;4;4;3
83597;PMS5003;73565;45.774;15.892;2024-03-29T07:59:00;2;2;2
83597;PMS5003;73565;45.774;15.892;2024-03-29T08:01:00;3;3;2
83597;PMS5003;73565;45.774;15.892;2024-03-29T08:04:01;4;3;3
83597;PMS5003;73565;45.774;15.892;2024-03-29T08:05:24;3;3;3
83597;PMS5003;73565;45.774;15.892;2024-03-29T08:07:23;4;4;3
83597;PMS5003;73565;45.774;15.892;2024-03-29T08:09:23;2;2;2
83597;PMS5003;73565;45.774;15.892;2024-03-29T08:11:23;3;2;2
83597;PMS5003;73565;45.774;15.892;2024-03-29T08:13:23;6;4;4
83597;PMS5003;73565;45.774;15.892;2024-03-29T08:15:23;3;3;3
83597;PMS5003;73565;45.774;15.892;2024-03-29T08:17:23;3;3;3
83597;PMS5003;73565;45.774;15.892;2024-03-29T08:19:23;8;6;4
83597;PMS5003;73565;45.774;15.892;2024-03-29T08:21:23;6;5;5
83597;PMS5003;73565;45.774;15.892;2024-03-29T08:27:38;11;9;7
83597;PMS5003;73565;45.774;15.892;2024-03-29T08:29:23;14;9;7
83597;PMS5003;73565;45.774;15.892;2024-03-29T08:31:23;6;6;5
83597;PMS5003;73565;45.774;15.892;2024-03-29T08:33:23;9;9;7
83597;PMS5003;73565;45.774;15.892;2024-03-29T08:35:23;8;8;7
83597;PMS5003;73565;45.774;15.892;2024-03-29T08:37:23;7;6;5
83597;PMS5003;73565;45.774;15.892;2024-03-29T08:39:23;7;7;6
83597;PMS5003;73565;45.774;15.892;2024-03-29T08:41:23;11;9;8
83597;PMS5003;73565;45.774;15.892;2024-03-29T08:43:23;5;5;4
83597;PMS5003;73565;45.774;15.892;2024-03-29T08:45:23;2;1;1
83597;PMS5003;73565;45.774;15.892;2024-03-29T08:47:23;3;3;3
83597;PMS5003;73565;45.774;15.892;2024-03-29T08:49:23;3;3;3
83597;PMS5003;73565;45.774;15.892;2024-03-29T08:52:27;2;2;2
83597;PMS5003;73565;45.774;15.892;2024-03-29T08:53:36;2;2;2
83597;PMS5003;73565;45.774;15.892;2024-03-29T08:55:36;3;2;2
83597;PMS5003;73565;45.774;15.892;2024-03-29T08:57:36;2;2;2
83597;PMS5003;73565;45.774;15.892;2024-03-29T08:59:36;1;1;1
83597;PMS5003;73565;45.774;15.892;2024-03-29T09:01:37;1;1;0
83597;PMS5003;73565;45.774;15.892;2024-03-29T09:03:36;1;1;1
83597;PMS5003;73565;45.774;15.892;2024-03-29T09:05:36;1;1;1
83597;PMS5003;73565;45.774;15.892;2024-03-29T09:07:36;1;1;0
83597;PMS5003;73565;45.774;15.892;2024-03-29T09:09:36;1;1;1
83597;PMS5003;73565;45.774;15.892;2024-03-29T09:11:36;1;1;1
83597;PMS5003;73565;45.774;15.892;2024-03-29T09:13:51;1;1;1
83597;PMS5003;73565;45.774;15.892;2024-03-29T09:15:23;2;2;1
83597;PMS5003;73565;45.774;15.892;2024-03-29T09:17:23;0;0;0
83597;PMS5003;73565;45.774;15.892;2024-03-29T09:19:23;2;2;2
83597;PMS5003;73565;45.774;15.892;2024-03-29T09:21:23;1;1;1
83597;PMS5003;73565;45.774;15.892;2024-03-29T09:23:23;2;2;1
83597;PMS5003;73565;45.774;15.892;2024-03-29T09:25:23;2;2;1
83597;PMS5003;73565;45.774;15.892;2024-03-29T09:27:23;1;1;1
83597;PMS5003;73565;45.774;15.892;2024-03-29T09:29:23;1;1;1
83597;PMS5003;73565;45.774;15.892;2024-03-29T09:31:23;1;1;1
83597;PMS5003;73565;45.774;15.892;2024-03-29T09:33:23;0;0;0
83597;PMS5003;73565;45.774;15.892;2024-03-29T09:35:23;1;1;1
83597;PMS5003;73565;45.774;15.892;2024-03-29T09:37:23;2;2;1
83597;PMS5003;73565;45.774;15.892;2024-03-29T09:39:23;1;1;1
83597;PMS5003;73565;45.774;15.892;2024-03-29T09:41:23;0;0;0
83597;PMS5003;73565;45.774;15.892;2024-03-29T09:43:23;1;1;1
83597;PMS5003;73565;45.774;15.892;2024-03-29T09:45:23;1;1;0
83597;PMS5003;73565;45.774;15.892;2024-03-29T09:47:23;2;1;0
83597;PMS5003;73565;45.774;15.892;2024-03-29T09:49:23;2;2;1
83597;PMS5003;73565;45.774;15.892;2024-03-29T09:51:23;1;1;1
83597;PMS5003;73565;45.774;15.892;2024-03-29T09:53:23;1;1;0
83597;PMS5003;73565;45.774;15.892;2024-03-29T09:55:23;2;1;1
83597;PMS5003;73565;45.774;15.892;2024-03-29T09:56:09;0;0;0
83597;PMS5003;73565;45.774;15.892;2024-03-29T09:57:29;1;1;1
83597;PMS5003;73565;45.774;15.892;2024-03-29T09:59:29;1;1;1
83597;PMS5003;73565;45.774;15.892;2024-03-29T10:01:31;2;2;2
83597;PMS5003;73565;45.774;15.892;2024-03-29T10:03:30;0;0;0
83597;PMS5003;73565;45.774;15.892;2024-03-29T10:05:29;2;2;1
83597;PMS5003;73565;45.774;15.892;2024-03-29T10:07:29;2;2;1
83597;PMS5003;73565;45.774;15.892;2024-03-29T10:09:29;4;3;2
83597;PMS5003;73565;45.774;15.892;2024-03-29T10:11:29;3;1;1
83597;PMS5003;73565;45.774;15.892;2024-03-29T10:13:29;2;1;1
83597;PMS5003;73565;45.774;15.892;2024-03-29T10:15:29;2;2;1
83597;PMS5003;73565;45.774;15.892;2024-03-29T10:17:29;1;1;1
83597;PMS5003;73565;45.774;15.892;2024-03-29T10:19:29;1;1;1
83597;PMS5003;73565;45.774;15.892;2024-03-29T10:21:29;2;2;1
83597;PMS5003;73565;45.774;15.892;2024-03-29T10:23:29;1;1;0
83597;PMS5003;73565;45.774;15.892;2024-03-29T10:25:29;1;1;1
83597;PMS5003;73565;45.774;15.892;2024-03-29T10:27:29;2;2;1
83597;PMS5003;73565;45.774;15.892;2024-03-29T10:29:31;1;1;1
83597;PMS5003;73565;45.774;15.892;2024-03-29T10:31:33;0;0;0
83597;PMS5003;73565;45.774;15.892;2024-03-29T10:33:32;1;1;1
83597;PMS5003;73565;45.774;15.892;2024-03-29T10:35:41;2;2;2
83597;PMS5003;73565;45.774;15.892;2024-03-29T10:37:10;3;1;0
83597;PMS5003;73565;45.774;15.892;2024-03-29T10:39:13;2;1;1
83597;PMS5003;73565;45.774;15.892;2024-03-29T10:41:10;1;1;1
83597;PMS5003;73565;45.774;15.892;2024-03-29T10:43:12;2;1;1
83597;PMS5003;73565;45.774;15.892;2024-03-29T10:45:11;2;2;2
83597;PMS5003;73565;45.774;15.892;2024-03-29T10:47:10;2;2;1
83597;PMS5003;73565;45.774;15.892;2024-03-29T10:49:10;2;2;2
83597;PMS5003;73565;45.774;15.892;2024-03-29T10:51:10;2;1;1
83597;PMS5003;73565;45.774;15.892;2024-03-29T10:53:10;1;1;1
83597;PMS5003;73565;45.774;15.892;2024-03-29T10:55:11;1;1;1
83597;PMS5003;73565;45.774;15.892;2024-03-29T10:57:12;2;1;1
83597;PMS5003;73565;45.774;15.892;2024-03-29T10:59:12;2;2;2
83597;PMS5003;73565;45.774;15.892;2024-03-29T11:01:10;2;1;1
83597;PMS5003;73565;45.774;15.892;2024-03-29T11:03:12;1;1;1
83597;PMS5003;73565;45.774;15.892;2024-03-29T11:05:12;4;2;1
83597;PMS5003;73565;45.774;15.892;2024-03-29T11:07:17;1;1;1
83597;PMS5003;73565;45.774;15.892;2024-03-29T11:09:11;0;0;0
83597;PMS5003;73565;45.774;15.892;2024-03-29T11:11:11;2;1;1
83597;PMS5003;73565;45.774;15.892;2024-03-29T11:13:12;1;1;1
83597;PMS5003;73565;45.774;15.892;2024-03-29T11:15:12;2;1;1
83597;PMS5003;73565;45.774;15.892;2024-03-29T11:17:10;3;2;1
83597;PMS5003;73565;45.774;15.892;2024-03-29T11:19:10;1;1;1
83597;PMS5003;73565;45.774;15.892;2024-03-29T11:21:10;1;1;0
83597;PMS5003;73565;45.774;15.892;2024-03-29T11:23:11;2;2;1
83597;PMS5003;73565;45.774;15.892;2024-03-29T11:25:10;1;0;0
83597;PMS5003;73565;45.774;15.892;2024-03-29T11:27:11;1;1;0
83597;PMS5003;73565;45.774;15.892;2024-03-29T11:29:17;1;1;1
83597;PMS5003;73565;45.774;15.892;2024-03-29T11:29:58;1;1;1
83597;PMS5003;73565;45.774;15.892;2024-03-29T11:30:56;2;2;1
83597;PMS5003;73565;45.774;15.892;2024-03-29T11:32:43;0;0;0
83597;PMS5003;73565;45.774;15.892;2024-03-29T11:34:50;1;1;1
83597;PMS5003;73565;45.774;15.892;2024-03-29T11:36:44;1;1;0
83597;PMS5003;73565;45.774;15.892;2024-03-29T11:38:44;1;1;0
83597;PMS5003;73565;45.774;15.892;2024-03-29T11:40:43;2;2;1
83597;PMS5003;73565;45.774;15.892;2024-03-29T11:42:48;1;1;0
83597;PMS5003;73565;45.774;15.892;2024-03-29T11:44:43;1;1;0
83597;PMS5003;73565;45.774;15.892;2024-03-29T11:46:43;1;1;1
83597;PMS5003;73565;45.774;15.892;2024-03-29T11:48:43;1;1;1
83597;PMS5003;73565;45.774;15.892;2024-03-29T11:50:43;2;2;2
83597;PMS5003;73565;45.774;15.892;2024-03-29T11:52:43;1;1;1
83597;PMS5003;73565;45.774;15.892;2024-03-29T11:54:43;1;1;1
83597;PMS5003;73565;45.774;15.892;2024-03-29T11:56:43;1;1;1
83597;PMS5003;73565;45.774;15.892;2024-03-29T11:58:43;1;1;1
83597;PMS5003;73565;45.774;15.892;2024-03-29T12:00:43;2;1;1
83597;PMS5003;73565;45.774;15.892;2024-03-29T12:02:43;1;0;0
83597;PMS5003;73565;45.774;15.892;2024-03-29T12:04:43;2;1;1
83597;PMS5003;73565;45.774;15.892;2024-03-29T12:06:43;1;1;1
83597;PMS5003;73565;45.774;15.892;2024-03-29T12:08:43;0;0;0
83597;PMS5003;73565;45.774;15.892;2024-03-29T12:10:43;1;1;1
83597;PMS5003;73565;45.774;15.892;2024-03-29T12:12:43;1;1;1
83597;PMS5003;73565;45.774;15.892;2024-03-29T12:14:43;3;3;2
83597;PMS5003;73565;45.774;15.892;2024-03-29T12:16:47;0;0;0
83597;PMS5003;73565;45.774;15.892;2024-03-29T12:19:26;1;1;1
83597;PMS5003;73565;45.774;15.892;2024-03-29T12:20:44;0;0;0
83597;PMS5003;73565;45.774;15.892;2024-03-29T12:22:44;1;1;1
83597;PMS5003;73565;45.774;15.892;2024-03-29T12:24:44;0;0;0
83597;PMS5003;73565;45.774;15.892;2024-03-29T12:26:44;0;0;0
83597;PMS5003;73565;45.774;15.892;2024-03-29T12:28:44;0;0;0
83597;PMS5003;73565;45.774;15.892;2024-03-29T12:30:45;0;0;0
83597;PMS5003;73565;45.774;15.892;2024-03-29T12:32:44;0;0;0
83597;PMS5003;73565;45.774;15.892;2024-03-29T12:34:44;0;0;0
83597;PMS5003;73565;45.774;15.892;2024-03-29T12:36:44;2;2;1
83597;PMS5003;73565;45.774;15.892;2024-03-29T12:38:44;0;0;0
83597;PMS5003;73565;45.774;15.892;2024-03-29T12:40:44;1;1;0
83597;PMS5003;73565;45.774;15.892;2024-03-29T12:42:44;0;0;0
83597;PMS5003;73565;45.774;15.892;2024-03-29T12:44:44;4;1;1
83597;PMS5003;73565;45.774;15.892;2024-03-29T12:46:44;1;0;0
83597;PMS5003;73565;45.774;15.892;2024-03-29T12:48:44;1;1;1
83597;PMS5003;73565;45.774;15.892;2024-03-29T12:50:44;1;1;0
83597;PMS5003;73565;45.774;15.892;2024-03-29T12:52:44;0;0;0
83597;PMS5003;73565;45.774;15.892;2024-03-29T12:54:44;1;1;0
83597;PMS5003;73565;45.774;15.892;2024-03-29T12:56:44;2;1;1
83597;PMS5003;73565;45.774;15.892;2024-03-29T12:58:44;0;0;0
83597;PMS5003;73565;45.774;15.892;2024-03-29T12:59:33;1;1;1
83597;PMS5003;73565;45.774;15.892;2024-03-29T13:00:51;1;1;1
83597;PMS5003;73565;45.774;15.892;2024-03-29T13:02:51;0;0;0
83597;PMS5003;73565;45.774;15.892;2024-03-29T13:04:52;1;1;1
83597;PMS5003;73565;45.774;15.892;2024-03-29T13:06:52;1;1;1
83597;PMS5003;73565;45.774;15.892;2024-03-29T13:08:52;2;2;1
83597;PMS5003;73565;45.774;15.892;2024-03-29T13:10:52;0;0;0
83597;PMS5003;73565;45.774;15.892;2024-03-29T13:12:52;0;0;0
83597;PMS5003;73565;45.774;15.892;2024-03-29T13:14:52;2;2;1
83597;PMS5003;73565;45.774;15.892;2024-03-29T13:16:52;1;1;1
83597;PMS5003;73565;45.774;15.892;2024-03-29T13:18:51;1;1;1
83597;PMS5003;73565;45.774;15.892;2024-03-29T13:20:52;2;2;1
83597;PMS5003;73565;45.774;15.892;2024-03-29T13:22:52;3;2;1
83597;PMS5003;73565;45.774;15.892;2024-03-29T13:24:51;1;1;1
83597;PMS5003;73565;45.774;15.892;2024-03-29T13:26:52;1;1;1
83597;PMS5003;73565;45.774;15.892;2024-03-29T13:28:52;2;2;1